sensor_id;sensor_type;location;lat;lon;timestamp;temperature;humidity
32895;DHT22;19251;49.484;8.260;2023-04-05T00:05:13;5.00;9.80
32895;DHT22;19251;49.484;8.260;2023-04-05T00:10:15;4.90;10.00
32895;DHT22;19251;49.484;8.260;2023-04-05T00:15:17;4.80;10.10
32895;DHT22;19251;49.484;8.260;2023-04-05T00:20:19;4.70;10.20
32895;DHT22;19251;49.484;8.260;2023-04-05T00:30:24;4.60;10.20
32895;DHT22;19251;49.484;8.260;2023-04-05T00:35:26;4.50;10.40
32895;DHT22;19251;49.484;8.260;2023-04-05T00:40:29;4.40;10.50
32895;DHT22;19251;49.484;8.260;2023-04-05T00:45:31;4.30;10.90
32895;DHT22;19251;49.484;8.260;2023-04-05T00:50:34;4.20;10.90
32895;DHT22;19251;49.484;8.260;2023-04-05T00:55:36;4.10;11.50
32895;DHT22;19251;49.484;8.260;2023-04-05T01:00:38;4.10;12.00
32895;DHT22;19251;49.484;8.260;2023-04-05T01:10:45;4.00;11.90
32895;DHT22;19251;49.484;8.260;2023-04-05T01:15:49;4.00;12.20
32895;DHT22;19251;49.484;8.260;2023-04-05T01:20:54;3.90;12.20
32895;DHT22;19251;49.484;8.260;2023-04-05T01:26:13;3.90;12.30
32895;DHT22;19251;49.484;8.260;2023-04-05T01:31:22;3.80;12.20
32895;DHT22;19251;49.484;8.260;2023-04-05T01:36:33;3.70;12.50
32895;DHT22;19251;49.484;8.260;2023-04-05T01:41:38;3.70;12.80
32895;DHT22;19251;49.484;8.260;2023-04-05T01:46:41;3.60;12.80
32895;DHT22;19251;49.484;8.260;2023-04-05T01:51:43;3.50;12.90
32895;DHT22;19251;49.484;8.260;2023-04-05T01:56:45;3.50;13.00
32895;DHT22;19251;49.484;8.260;2023-04-05T02:01:49;3.40;13.10
32895;DHT22;19251;49.484;8.260;2023-04-05T02:06:52;3.30;13.30
32895;DHT22;19251;49.484;8.260;2023-04-05T02:11:54;3.30;13.30
32895;DHT22;19251;49.484;8.260;2023-04-05T02:16:57;3.20;13.60
32895;DHT22;19251;49.484;8.260;2023-04-05T02:21:59;3.20;13.80
32895;DHT22;19251;49.484;8.260;2023-04-05T02:27:03;3.20;13.70
32895;DHT22;19251;49.484;8.260;2023-04-05T02:32:05;3.10;13.80
32895;DHT22;19251;49.484;8.260;2023-04-05T02:37:07;3.10;13.90
32895;DHT22;19251;49.484;8.260;2023-04-05T02:42:09;3.10;13.90
32895;DHT22;19251;49.484;8.260;2023-04-05T02:47:11;3.00;14.20
32895;DHT22;19251;49.484;8.260;2023-04-05T02:52:14;2.90;14.00
32895;DHT22;19251;49.484;8.260;2023-04-05T02:57:19;2.90;14.20
32895;DHT22;19251;49.484;8.260;2023-04-05T03:02:22;2.90;14.30
32895;DHT22;19251;49.484;8.260;2023-04-05T03:07:25;2.80;14.20
32895;DHT22;19251;49.484;8.260;2023-04-05T03:12:28;2.80;14.40
32895;DHT22;19251;49.484;8.260;2023-04-05T03:17:31;2.80;14.40
32895;DHT22;19251;49.484;8.260;2023-04-05T03:22:36;2.70;14.60
32895;DHT22;19251;49.484;8.260;2023-04-05T03:27:39;2.60;14.70
32895;DHT22;19251;49.484;8.260;2023-04-05T03:32:43;2.60;14.80
32895;DHT22;19251;49.484;8.260;2023-04-05T03:37:47;2.50;14.80
32895;DHT22;19251;49.484;8.260;2023-04-05T03:42:49;2.40;14.80
32895;DHT22;19251;49.484;8.260;2023-04-05T03:47:51;2.40;14.90
32895;DHT22;19251;49.484;8.260;2023-04-05T03:52:55;2.30;14.90
32895;DHT22;19251;49.484;8.260;2023-04-05T03:57:57;2.30;15.00
32895;DHT22;19251;49.484;8.260;2023-04-05T04:03:00;2.30;15.10
32895;DHT22;19251;49.484;8.260;2023-04-05T04:13:07;2.10;15.20
32895;DHT22;19251;49.484;8.260;2023-04-05T04:18:10;2.00;15.20
32895;DHT22;19251;49.484;8.260;2023-04-05T04:23:13;2.00;15.60
32895;DHT22;19251;49.484;8.260;2023-04-05T04:28:22;2.00;15.60
32895;DHT22;19251;49.484;8.260;2023-04-05T04:33:28;2.10;15.70
32895;DHT22;19251;49.484;8.260;2023-04-05T04:38:33;2.00;15.80
32895;DHT22;19251;49.484;8.260;2023-04-05T04:43:36;1.90;15.90
32895;DHT22;19251;49.484;8.260;2023-04-05T04:48:45;1.90;16.30
32895;DHT22;19251;49.484;8.260;2023-04-05T04:53:50;1.80;16.00
32895;DHT22;19251;49.484;8.260;2023-04-05T04:58:53;1.80;16.10
32895;DHT22;19251;49.484;8.260;2023-04-05T05:03:56;1.70;16.10
32895;DHT22;19251;49.484;8.260;2023-04-05T05:08:58;1.70;16.10
32895;DHT22;19251;49.484;8.260;2023-04-05T05:14:02;1.70;16.20
32895;DHT22;19251;49.484;8.260;2023-04-05T05:19:04;1.80;16.40
32895;DHT22;19251;49.484;8.260;2023-04-05T05:24:08;1.80;16.60
32895;DHT22;19251;49.484;8.260;2023-04-05T05:29:11;1.80;16.80
32895;DHT22;19251;49.484;8.260;2023-04-05T05:34:13;1.90;17.00
32895;DHT22;19251;49.484;8.260;2023-04-05T05:39:16;2.00;17.40
32895;DHT22;19251;49.484;8.260;2023-04-05T05:44:21;2.10;17.40
32895;DHT22;19251;49.484;8.260;2023-04-05T05:49:23;2.20;17.70
32895;DHT22;19251;49.484;8.260;2023-04-05T05:59:28;2.40;17.60
32895;DHT22;19251;49.484;8.260;2023-04-05T06:04:31;2.60;17.70
32895;DHT22;19251;49.484;8.260;2023-04-05T06:09:35;2.70;17.80
32895;DHT22;19251;49.484;8.260;2023-04-05T06:14:37;2.90;18.00
32895;DHT22;19251;49.484;8.260;2023-04-05T06:19:39;3.00;18.00
32895;DHT22;19251;49.484;8.260;2023-04-05T06:24:41;3.20;18.20
32895;DHT22;19251;49.484;8.260;2023-04-05T06:29:43;3.40;18.30
32895;DHT22;19251;49.484;8.260;2023-04-05T06:34:46;3.70;18.40
32895;DHT22;19251;49.484;8.260;2023-04-05T06:39:49;3.90;18.50
32895;DHT22;19251;49.484;8.260;2023-04-05T06:44:52;4.10;18.60
32895;DHT22;19251;49.484;8.260;2023-04-05T06:49:53;4.40;18.80
32895;DHT22;19251;49.484;8.260;2023-04-05T06:54:56;4.70;19.00
32895;DHT22;19251;49.484;8.260;2023-04-05T06:59:58;5.00;19.10
32895;DHT22;19251;49.484;8.260;2023-04-05T07:05:00;5.30;19.00
32895;DHT22;19251;49.484;8.260;2023-04-05T07:10:06;5.60;18.70
32895;DHT22;19251;49.484;8.260;2023-04-05T07:15:09;5.80;18.40
32895;DHT22;19251;49.484;8.260;2023-04-05T07:20:12;6.00;18.10
32895;DHT22;19251;49.484;8.260;2023-04-05T07:25:15;6.20;18.10
32895;DHT22;19251;49.484;8.260;2023-04-05T07:30:17;6.30;18.10
32895;DHT22;19251;49.484;8.260;2023-04-05T07:35:19;6.50;17.90
32895;DHT22;19251;49.484;8.260;2023-04-05T07:40:21;6.70;17.70
32895;DHT22;19251;49.484;8.260;2023-04-05T07:45:23;6.90;17.60
32895;DHT22;19251;49.484;8.260;2023-04-05T07:50:26;7.10;17.60
32895;DHT22;19251;49.484;8.260;2023-04-05T07:55:28;7.30;17.40
32895;DHT22;19251;49.484;8.260;2023-04-05T08:00:30;7.50;17.00
32895;DHT22;19251;49.484;8.260;2023-04-05T08:05:32;7.60;16.60
32895;DHT22;19251;49.484;8.260;2023-04-05T08:10:38;7.80;16.40
32895;DHT22;19251;49.484;8.260;2023-04-05T08:15:41;7.90;16.10
32895;DHT22;19251;49.484;8.260;2023-04-05T08:20:43;8.10;15.70
32895;DHT22;19251;49.484;8.260;2023-04-05T08:25:45;8.30;15.70
32895;DHT22;19251;49.484;8.260;2023-04-05T08:30:47;8.50;15.70
32895;DHT22;19251;49.484;8.260;2023-04-05T08:35:49;8.70;15.00
32895;DHT22;19251;49.484;8.260;2023-04-05T08:40:52;8.90;14.90
32895;DHT22;19251;49.484;8.260;2023-04-05T08:45:54;9.10;14.60
32895;DHT22;19251;49.484;8.260;2023-04-05T08:50:59;9.20;13.90
32895;DHT22;19251;49.484;8.260;2023-04-05T08:56:02;9.30;13.80
32895;DHT22;19251;49.484;8.260;2023-04-05T09:01:05;9.50;13.90
32895;DHT22;19251;49.484;8.260;2023-04-05T09:06:07;9.60;13.70
32895;DHT22;19251;49.484;8.260;2023-04-05T09:11:11;9.80;12.90
32895;DHT22;19251;49.484;8.260;2023-04-05T09:16:13;10.00;11.00
32895;DHT22;19251;49.484;8.260;2023-04-05T09:21:17;10.20;11.20
32895;DHT22;19251;49.484;8.260;2023-04-05T09:26:24;10.30;10.90
32895;DHT22;19251;49.484;8.260;2023-04-05T09:31:28;10.50;10.80
32895;DHT22;19251;49.484;8.260;2023-04-05T09:36:33;10.70;9.90
32895;DHT22;19251;49.484;8.260;2023-04-05T09:41:35;10.70;9.70
32895;DHT22;19251;49.484;8.260;2023-04-05T09:46:38;11.00;9.30
32895;DHT22;19251;49.484;8.260;2023-04-05T09:51:40;11.10;9.00
32895;DHT22;19251;49.484;8.260;2023-04-05T09:56:52;11.10;8.70
32895;DHT22;19251;49.484;8.260;2023-04-05T10:01:54;11.40;8.40
32895;DHT22;19251;49.484;8.260;2023-04-05T10:06:57;11.60;8.10
32895;DHT22;19251;49.484;8.260;2023-04-05T10:12:00;11.80;7.10
32895;DHT22;19251;49.484;8.260;2023-04-05T10:22:10;11.90;6.40
32895;DHT22;19251;49.484;8.260;2023-04-05T10:27:31;12.00;6.40
32895;DHT22;19251;49.484;8.260;2023-04-05T10:42:51;12.10;4.80
32895;DHT22;19251;49.484;8.260;2023-04-05T10:47:58;12.20;4.80
32895;DHT22;19251;49.484;8.260;2023-04-05T10:53:06;12.30;4.60
32895;DHT22;19251;49.484;8.260;2023-04-05T10:58:10;12.40;4.60
32895;DHT22;19251;49.484;8.260;2023-04-05T11:08:40;12.80;3.80
32895;DHT22;19251;49.484;8.260;2023-04-05T11:13:52;13.00;2.80
32895;DHT22;19251;49.484;8.260;2023-04-05T11:18:54;13.20;3.20
32895;DHT22;19251;49.484;8.260;2023-04-05T11:29:03;13.60;3.20
32895;DHT22;19251;49.484;8.260;2023-04-05T11:34:05;13.80;2.00
32895;DHT22;19251;49.484;8.260;2023-04-05T11:44:19;14.80;1.70
32895;DHT22;19251;49.484;8.260;2023-04-05T11:49:22;15.00;1.00
32895;DHT22;19251;49.484;8.260;2023-04-05T11:59:31;15.50;1.00
32895;DHT22;19251;49.484;8.260;2023-04-05T12:04:34;15.60;1.00
32895;DHT22;19251;49.484;8.260;2023-04-05T12:14:58;15.50;1.00
32895;DHT22;19251;49.484;8.260;2023-04-05T12:20:01;15.60;1.00
32895;DHT22;19251;49.484;8.260;2023-04-05T12:25:04;15.70;1.00
32895;DHT22;19251;49.484;8.260;2023-04-05T12:30:08;15.80;1.00
32895;DHT22;19251;49.484;8.260;2023-04-05T12:35:11;16.10;1.00
32895;DHT22;19251;49.484;8.260;2023-04-05T12:40:18;16.20;1.00
32895;DHT22;19251;49.484;8.260;2023-04-05T12:45:22;16.30;1.00
32895;DHT22;19251;49.484;8.260;2023-04-05T12:50:25;16.50;1.00
32895;DHT22;19251;49.484;8.260;2023-04-05T12:55:28;16.60;1.00
32895;DHT22;19251;49.484;8.260;2023-04-05T13:00:34;16.80;1.00
32895;DHT22;19251;49.484;8.260;2023-04-05T13:05:36;17.00;1.00
32895;DHT22;19251;49.484;8.260;2023-04-05T13:10:38;17.10;1.00
32895;DHT22;19251;49.484;8.260;2023-04-05T13:15:41;17.30;1.00
32895;DHT22;19251;49.484;8.260;2023-04-05T13:20:44;17.70;1.00
32895;DHT22;19251;49.484;8.260;2023-04-05T13:25:47;17.80;1.00
32895;DHT22;19251;49.484;8.260;2023-04-05T13:30:52;18.10;1.00
32895;DHT22;19251;49.484;8.260;2023-04-05T13:35:55;18.40;1.00
32895;DHT22;19251;49.484;8.260;2023-04-05T13:40:57;18.50;1.00
32895;DHT22;19251;49.484;8.260;2023-04-05T13:46:00;19.60;1.00
32895;DHT22;19251;49.484;8.260;2023-04-05T13:51:04;19.60;1.00
32895;DHT22;19251;49.484;8.260;2023-04-05T13:56:06;20.70;1.00
32895;DHT22;19251;49.484;8.260;2023-04-05T14:01:08;20.90;1.00
32895;DHT22;19251;49.484;8.260;2023-04-05T14:06:10;21.00;1.00
32895;DHT22;19251;49.484;8.260;2023-04-05T14:11:12;22.50;1.00
32895;DHT22;19251;49.484;8.260;2023-04-05T14:16:14;23.40;1.00
32895;DHT22;19251;49.484;8.260;2023-04-05T14:21:19;23.80;1.00
32895;DHT22;19251;49.484;8.260;2023-04-05T14:26:22;23.80;1.00
32895;DHT22;19251;49.484;8.260;2023-04-05T14:31:25;24.00;1.00
32895;DHT22;19251;49.484;8.260;2023-04-05T14:36:28;25.00;1.00
32895;DHT22;19251;49.484;8.260;2023-04-05T14:41:30;25.70;1.00
32895;DHT22;19251;49.484;8.260;2023-04-05T14:46:35;26.70;1.00
32895;DHT22;19251;49.484;8.260;2023-04-05T14:51:37;27.00;1.00
32895;DHT22;19251;49.484;8.260;2023-04-05T14:56:39;27.10;1.00
32895;DHT22;19251;49.484;8.260;2023-04-05T15:01:41;27.40;1.00
32895;DHT22;19251;49.484;8.260;2023-04-05T15:06:48;27.50;1.00
32895;DHT22;19251;49.484;8.260;2023-04-05T15:11:50;27.90;1.00
32895;DHT22;19251;49.484;8.260;2023-04-05T15:16:55;28.20;1.00
32895;DHT22;19251;49.484;8.260;2023-04-05T15:21:58;28.30;1.00
32895;DHT22;19251;49.484;8.260;2023-04-05T15:27:00;28.90;1.00
32895;DHT22;19251;49.484;8.260;2023-04-05T15:32:05;29.20;1.00
32895;DHT22;19251;49.484;8.260;2023-04-05T15:37:07;29.40;1.00
32895;DHT22;19251;49.484;8.260;2023-04-05T15:42:11;29.50;1.00
32895;DHT22;19251;49.484;8.260;2023-04-05T15:47:13;29.40;1.00
32895;DHT22;19251;49.484;8.260;2023-04-05T15:52:15;29.70;1.00
32895;DHT22;19251;49.484;8.260;2023-04-05T15:57:18;29.80;1.00
32895;DHT22;19251;49.484;8.260;2023-04-05T16:02:20;29.90;1.00
32895;DHT22;19251;49.484;8.260;2023-04-05T16:07:22;29.60;1.00
32895;DHT22;19251;49.484;8.260;2023-04-05T16:12:24;27.80;1.00
32895;DHT22;19251;49.484;8.260;2023-04-05T16:17:27;26.20;1.00
32895;DHT22;19251;49.484;8.260;2023-04-05T16:22:29;26.00;1.00
32895;DHT22;19251;49.484;8.260;2023-04-05T16:27:33;23.50;1.00
32895;DHT22;19251;49.484;8.260;2023-04-05T16:32:36;21.90;1.00
32895;DHT22;19251;49.484;8.260;2023-04-05T16:37:39;20.60;1.00
32895;DHT22;19251;49.484;8.260;2023-04-05T16:42:41;19.40;1.00
32895;DHT22;19251;49.484;8.260;2023-04-05T16:52:46;18.00;1.00
32895;DHT22;19251;49.484;8.260;2023-04-05T16:57:48;17.80;1.00
32895;DHT22;19251;49.484;8.260;2023-04-05T17:02:51;17.30;1.00
32895;DHT22;19251;49.484;8.260;2023-04-05T17:07:54;16.70;1.00
32895;DHT22;19251;49.484;8.260;2023-04-05T17:12:57;16.70;1.00
32895;DHT22;19251;49.484;8.260;2023-04-05T17:17:59;16.30;1.00
32895;DHT22;19251;49.484;8.260;2023-04-05T17:23:02;16.00;1.00
32895;DHT22;19251;49.484;8.260;2023-04-05T17:28:04;15.70;1.00
32895;DHT22;19251;49.484;8.260;2023-04-05T17:33:06;15.70;1.00
32895;DHT22;19251;49.484;8.260;2023-04-05T17:38:09;15.20;1.00
32895;DHT22;19251;49.484;8.260;2023-04-05T17:43:11;15.00;1.00
32895;DHT22;19251;49.484;8.260;2023-04-05T17:48:13;14.60;1.00
32895;DHT22;19251;49.484;8.260;2023-04-05T17:53:16;14.50;1.00
32895;DHT22;19251;49.484;8.260;2023-04-05T17:58:21;14.10;1.00
32895;DHT22;19251;49.484;8.260;2023-04-05T18:03:24;13.90;1.00
32895;DHT22;19251;49.484;8.260;2023-04-05T18:08:26;13.50;1.00
32895;DHT22;19251;49.484;8.260;2023-04-05T18:13:29;13.20;1.00
32895;DHT22;19251;49.484;8.260;2023-04-05T18:18:32;12.90;1.00
32895;DHT22;19251;49.484;8.260;2023-04-05T18:23:34;12.50;1.00
32895;DHT22;19251;49.484;8.260;2023-04-05T18:28:36;12.20;1.00
32895;DHT22;19251;49.484;8.260;2023-04-05T18:33:39;12.00;1.00
32895;DHT22;19251;49.484;8.260;2023-04-05T18:38:41;11.80;1.00
32895;DHT22;19251;49.484;8.260;2023-04-05T18:43:43;11.40;1.00
32895;DHT22;19251;49.484;8.260;2023-04-05T18:48:52;11.30;1.00
32895;DHT22;19251;49.484;8.260;2023-04-05T18:53:57;10.90;1.00
32895;DHT22;19251;49.484;8.260;2023-04-05T18:58:59;10.60;1.00
32895;DHT22;19251;49.484;8.260;2023-04-05T19:04:02;10.30;1.00
32895;DHT22;19251;49.484;8.260;2023-04-05T19:09:06;10.10;1.00
32895;DHT22;19251;49.484;8.260;2023-04-05T19:14:09;9.90;1.00
32895;DHT22;19251;49.484;8.260;2023-04-05T19:19:11;9.60;1.00
32895;DHT22;19251;49.484;8.260;2023-04-05T19:24:13;9.40;1.00
32895;DHT22;19251;49.484;8.260;2023-04-05T19:29:16;9.20;1.00
32895;DHT22;19251;49.484;8.260;2023-04-05T19:34:19;9.00;1.00
32895;DHT22;19251;49.484;8.260;2023-04-05T19:39:21;8.90;1.00
32895;DHT22;19251;49.484;8.260;2023-04-05T19:50:01;8.60;1.00
32895;DHT22;19251;49.484;8.260;2023-04-05T19:55:35;8.30;1.00
32895;DHT22;19251;49.484;8.260;2023-04-05T20:10:45;7.80;1.00
32895;DHT22;19251;49.484;8.260;2023-04-05T20:15:52;7.70;1.00
32895;DHT22;19251;49.484;8.260;2023-04-05T20:20:55;7.50;1.00
32895;DHT22;19251;49.484;8.260;2023-04-05T20:25:57;7.40;1.00
32895;DHT22;19251;49.484;8.260;2023-04-05T20:31:00;7.30;1.00
32895;DHT22;19251;49.484;8.260;2023-04-05T20:36:03;7.20;1.00
32895;DHT22;19251;49.484;8.260;2023-04-05T20:41:11;7.00;1.00
32895;DHT22;19251;49.484;8.260;2023-04-05T20:46:14;7.00;1.00
32895;DHT22;19251;49.484;8.260;2023-04-05T20:51:17;6.80;1.60
32895;DHT22;19251;49.484;8.260;2023-04-05T20:56:20;6.60;1.80
32895;DHT22;19251;49.484;8.260;2023-04-05T21:01:22;6.50;2.00
32895;DHT22;19251;49.484;8.260;2023-04-05T21:06:24;6.40;2.40
32895;DHT22;19251;49.484;8.260;2023-04-05T21:11:27;6.30;2.60
32895;DHT22;19251;49.484;8.260;2023-04-05T21:16:29;6.20;3.00
32895;DHT22;19251;49.484;8.260;2023-04-05T21:21:33;6.10;3.10
32895;DHT22;19251;49.484;8.260;2023-04-05T21:26:35;6.00;3.40
32895;DHT22;19251;49.484;8.260;2023-04-05T21:31:37;6.00;3.70
32895;DHT22;19251;49.484;8.260;2023-04-05T21:36:39;5.90;3.80
32895;DHT22;19251;49.484;8.260;2023-04-05T21:41:43;5.80;4.00
32895;DHT22;19251;49.484;8.260;2023-04-05T21:46:45;5.70;4.20
32895;DHT22;19251;49.484;8.260;2023-04-05T21:51:50;5.60;4.50
32895;DHT22;19251;49.484;8.260;2023-04-05T21:56:52;5.50;4.50
32895;DHT22;19251;49.484;8.260;2023-04-05T22:01:54;5.50;4.70
32895;DHT22;19251;49.484;8.260;2023-04-05T22:06:57;5.40;4.90
32895;DHT22;19251;49.484;8.260;2023-04-05T22:11:59;5.40;5.30
32895;DHT22;19251;49.484;8.260;2023-04-05T22:17:02;5.30;5.40
32895;DHT22;19251;49.484;8.260;2023-04-05T22:22:05;5.20;5.60
32895;DHT22;19251;49.484;8.260;2023-04-05T22:27:07;5.10;5.70
32895;DHT22;19251;49.484;8.260;2023-04-05T22:32:09;5.10;6.00
32895;DHT22;19251;49.484;8.260;2023-04-05T22:37:12;5.00;6.00
32895;DHT22;19251;49.484;8.260;2023-04-05T22:47:18;4.90;6.50
32895;DHT22;19251;49.484;8.260;2023-04-05T22:52:20;4.90;6.80
32895;DHT22;19251;49.484;8.260;2023-04-05T22:57:22;4.80;6.90
32895;DHT22;19251;49.484;8.260;2023-04-05T23:02:24;4.80;7.20
32895;DHT22;19251;49.484;8.260;2023-04-05T23:07:28;4.70;7.40
32895;DHT22;19251;49.484;8.260;2023-04-05T23:12:30;4.60;7.50
32895;DHT22;19251;49.484;8.260;2023-04-05T23:17:33;4.50;7.50
32895;DHT22;19251;49.484;8.260;2023-04-05T23:22:35;4.50;7.60
32895;DHT22;19251;49.484;8.260;2023-04-05T23:27:37;4.50;7.90
32895;DHT22;19251;49.484;8.260;2023-04-05T23:32:40;4.40;7.80
32895;DHT22;19251;49.484;8.260;2023-04-05T23:37:42;4.40;7.90
32895;DHT22;19251;49.484;8.260;2023-04-05T23:42:44;4.40;8.10
32895;DHT22;19251;49.484;8.260;2023-04-05T23:47:46;4.30;8.30
32895;DHT22;19251;49.484;8.260;2023-04-05T23:52:49;4.30;8.30
32895;DHT22;19251;49.484;8.260;2023-04-05T23:57:51;4.20;8.50
